sensor_id;sensor_type;location;lat;lon;timestamp;P1;durP1;ratioP1;P2;durP2;ratioP2
19869;SDS011;10097;50.862;4.696;2023-01-24T00:00:56;42.70;;;22.77;;
19869;SDS011;10097;50.862;4.696;2023-01-24T00:03:21;38.37;;;21.40;;
19869;SDS011;10097;50.862;4.696;2023-01-24T00:05:47;41.03;;;22.77;;
19869;SDS011;10097;50.862;4.696;2023-01-24T00:08:15;42.73;;;22.40;;
19869;SDS011;10097;50.862;4.696;2023-01-24T00:10:47;41.07;;;22.93;;
19869;SDS011;10097;50.862;4.696;2023-01-24T00:13:13;42.20;;;23.13;;
19869;SDS011;10097;50.862;4.696;2023-01-24T00:15:40;40.53;;;22.20;;
19869;SDS011;10097;50.862;4.696;2023-01-24T00:18:06;43.03;;;22.17;;
19869;SDS011;10097;50.862;4.696;2023-01-24T00:20:32;42.20;;;23.27;;
19869;SDS011;10097;50.862;4.696;2023-01-24T00:22:58;43.23;;;22.70;;
19869;SDS011;10097;50.862;4.696;2023-01-24T00:25:23;45.60;;;23.73;;
19869;SDS011;10097;50.862;4.696;2023-01-24T00:27:49;41.40;;;22.80;;
19869;SDS011;10097;50.862;4.696;2023-01-24T00:30:15;44.90;;;23.63;;
19869;SDS011;10097;50.862;4.696;2023-01-24T00:32:41;45.80;;;24.07;;
19869;SDS011;10097;50.862;4.696;2023-01-24T00:35:07;43.10;;;24.03;;
19869;SDS011;10097;50.862;4.696;2023-01-24T00:37:33;46.80;;;24.80;;
19869;SDS011;10097;50.862;4.696;2023-01-24T00:39:58;46.37;;;24.27;;
19869;SDS011;10097;50.862;4.696;2023-01-24T00:42:24;48.00;;;25.73;;
19869;SDS011;10097;50.862;4.696;2023-01-24T00:44:49;44.63;;;25.30;;
19869;SDS011;10097;50.862;4.696;2023-01-24T00:47:15;45.30;;;24.27;;
19869;SDS011;10097;50.862;4.696;2023-01-24T00:49:41;52.07;;;24.90;;
19869;SDS011;10097;50.862;4.696;2023-01-24T00:52:07;53.17;;;26.53;;
19869;SDS011;10097;50.862;4.696;2023-01-24T00:54:32;45.73;;;24.97;;
19869;SDS011;10097;50.862;4.696;2023-01-24T00:56:58;56.67;;;28.10;;
19869;SDS011;10097;50.862;4.696;2023-01-24T00:59:24;46.60;;;25.83;;
19869;SDS011;10097;50.862;4.696;2023-01-24T01:01:49;46.97;;;25.70;;
19869;SDS011;10097;50.862;4.696;2023-01-24T01:04:15;44.27;;;25.00;;
19869;SDS011;10097;50.862;4.696;2023-01-24T01:06:41;43.27;;;23.73;;
19869;SDS011;10097;50.862;4.696;2023-01-24T01:09:09;44.73;;;22.77;;
19869;SDS011;10097;50.862;4.696;2023-01-24T01:11:35;43.33;;;23.27;;
19869;SDS011;10097;50.862;4.696;2023-01-24T01:14:06;42.40;;;23.67;;
19869;SDS011;10097;50.862;4.696;2023-01-24T01:16:33;45.47;;;23.90;;
19869;SDS011;10097;50.862;4.696;2023-01-24T01:19:03;45.03;;;23.83;;
19869;SDS011;10097;50.862;4.696;2023-01-24T01:21:29;43.37;;;24.23;;
19869;SDS011;10097;50.862;4.696;2023-01-24T01:23:54;41.17;;;22.67;;
19869;SDS011;10097;50.862;4.696;2023-01-24T01:26:20;42.53;;;24.00;;
19869;SDS011;10097;50.862;4.696;2023-01-24T01:28:47;46.00;;;24.27;;
19869;SDS011;10097;50.862;4.696;2023-01-24T01:31:13;43.47;;;23.03;;
19869;SDS011;10097;50.862;4.696;2023-01-24T01:33:40;43.47;;;24.10;;
19869;SDS011;10097;50.862;4.696;2023-01-24T01:36:07;44.50;;;23.30;;
19869;SDS011;10097;50.862;4.696;2023-01-24T01:38:32;43.57;;;23.83;;
19869;SDS011;10097;50.862;4.696;2023-01-24T01:40:58;46.70;;;23.63;;
19869;SDS011;10097;50.862;4.696;2023-01-24T01:43:25;41.63;;;23.00;;
19869;SDS011;10097;50.862;4.696;2023-01-24T01:45:53;42.23;;;23.03;;
19869;SDS011;10097;50.862;4.696;2023-01-24T01:53:43;39.30;;;22.23;;
19869;SDS011;10097;50.862;4.696;2023-01-24T01:56:18;41.20;;;22.93;;
19869;SDS011;10097;50.862;4.696;2023-01-24T01:58:50;39.20;;;21.47;;
19869;SDS011;10097;50.862;4.696;2023-01-24T02:01:18;42.57;;;22.33;;
19869;SDS011;10097;50.862;4.696;2023-01-24T02:03:45;42.93;;;23.77;;
19869;SDS011;10097;50.862;4.696;2023-01-24T02:08:57;43.83;;;23.63;;
19869;SDS011;10097;50.862;4.696;2023-01-24T02:11:25;43.53;;;23.83;;
19869;SDS011;10097;50.862;4.696;2023-01-24T02:14:05;45.80;;;24.83;;
19869;SDS011;10097;50.862;4.696;2023-01-24T02:16:54;45.40;;;24.43;;
19869;SDS011;10097;50.862;4.696;2023-01-24T02:19:27;44.17;;;24.27;;
19869;SDS011;10097;50.862;4.696;2023-01-24T02:22:11;41.23;;;23.13;;
19869;SDS011;10097;50.862;4.696;2023-01-24T02:24:55;40.20;;;22.93;;
19869;SDS011;10097;50.862;4.696;2023-01-24T02:27:43;45.53;;;24.40;;
19869;SDS011;10097;50.862;4.696;2023-01-24T02:30:09;41.20;;;22.60;;
19869;SDS011;10097;50.862;4.696;2023-01-24T02:32:35;43.53;;;24.03;;
19869;SDS011;10097;50.862;4.696;2023-01-24T02:35:01;43.77;;;23.67;;
19869;SDS011;10097;50.862;4.696;2023-01-24T02:37:27;43.87;;;23.80;;
19869;SDS011;10097;50.862;4.696;2023-01-24T02:42:21;47.07;;;24.90;;
19869;SDS011;10097;50.862;4.696;2023-01-24T02:47:43;47.87;;;25.70;;
19869;SDS011;10097;50.862;4.696;2023-01-24T02:50:11;44.33;;;23.90;;
19869;SDS011;10097;50.862;4.696;2023-01-24T02:52:37;45.70;;;24.63;;
19869;SDS011;10097;50.862;4.696;2023-01-24T02:55:22;43.53;;;23.57;;
19869;SDS011;10097;50.862;4.696;2023-01-24T02:57:48;45.50;;;24.37;;
19869;SDS011;10097;50.862;4.696;2023-01-24T03:00:36;45.03;;;24.50;;
19869;SDS011;10097;50.862;4.696;2023-01-24T03:03:04;41.70;;;23.40;;
19869;SDS011;10097;50.862;4.696;2023-01-24T03:05:31;41.80;;;23.73;;
19869;SDS011;10097;50.862;4.696;2023-01-24T03:08:16;40.30;;;21.50;;
19869;SDS011;10097;50.862;4.696;2023-01-24T03:10:41;39.00;;;20.43;;
19869;SDS011;10097;50.862;4.696;2023-01-24T03:13:07;41.67;;;22.43;;
19869;SDS011;10097;50.862;4.696;2023-01-24T03:15:51;41.17;;;22.93;;
19869;SDS011;10097;50.862;4.696;2023-01-24T03:18:35;39.77;;;23.00;;
19869;SDS011;10097;50.862;4.696;2023-01-24T03:21:19;41.23;;;21.97;;
19869;SDS011;10097;50.862;4.696;2023-01-24T03:24:03;41.30;;;21.60;;
19869;SDS011;10097;50.862;4.696;2023-01-24T03:26:47;39.90;;;21.97;;
19869;SDS011;10097;50.862;4.696;2023-01-24T03:29:31;39.40;;;21.53;;
19869;SDS011;10097;50.862;4.696;2023-01-24T03:32:15;40.37;;;21.50;;
19869;SDS011;10097;50.862;4.696;2023-01-24T03:34:59;39.20;;;21.17;;
19869;SDS011;10097;50.862;4.696;2023-01-24T03:37:25;38.30;;;21.23;;
19869;SDS011;10097;50.862;4.696;2023-01-24T03:40:10;39.50;;;21.40;;
19869;SDS011;10097;50.862;4.696;2023-01-24T03:42:38;39.73;;;21.70;;
19869;SDS011;10097;50.862;4.696;2023-01-24T03:45:23;40.90;;;20.50;;
19869;SDS011;10097;50.862;4.696;2023-01-24T03:47:54;41.97;;;21.83;;
19869;SDS011;10097;50.862;4.696;2023-01-24T03:50:22;43.87;;;23.67;;
19869;SDS011;10097;50.862;4.696;2023-01-24T03:53:08;42.80;;;23.20;;
19869;SDS011;10097;50.862;4.696;2023-01-24T03:55:34;41.63;;;22.97;;
19869;SDS011;10097;50.862;4.696;2023-01-24T03:58:00;40.43;;;22.77;;
19869;SDS011;10097;50.862;4.696;2023-01-24T04:00:27;41.93;;;22.97;;
19869;SDS011;10097;50.862;4.696;2023-01-24T04:02:52;40.07;;;21.93;;
19869;SDS011;10097;50.862;4.696;2023-01-24T04:05:18;43.83;;;22.40;;
19869;SDS011;10097;50.862;4.696;2023-01-24T04:07:45;43.67;;;23.27;;
19869;SDS011;10097;50.862;4.696;2023-01-24T04:10:11;41.27;;;22.10;;
19869;SDS011;10097;50.862;4.696;2023-01-24T04:12:38;37.20;;;22.17;;
19869;SDS011;10097;50.862;4.696;2023-01-24T04:15:05;37.27;;;20.57;;
19869;SDS011;10097;50.862;4.696;2023-01-24T04:17:32;39.53;;;21.13;;
19869;SDS011;10097;50.862;4.696;2023-01-24T04:19:57;40.90;;;21.93;;
19869;SDS011;10097;50.862;4.696;2023-01-24T04:22:23;37.43;;;21.07;;
19869;SDS011;10097;50.862;4.696;2023-01-24T04:24:49;41.50;;;20.50;;
19869;SDS011;10097;50.862;4.696;2023-01-24T04:27:15;41.00;;;22.97;;
19869;SDS011;10097;50.862;4.696;2023-01-24T04:29:40;37.20;;;21.40;;
19869;SDS011;10097;50.862;4.696;2023-01-24T04:32:06;39.50;;;21.23;;
19869;SDS011;10097;50.862;4.696;2023-01-24T04:34:32;39.67;;;21.30;;
19869;SDS011;10097;50.862;4.696;2023-01-24T04:36:58;39.10;;;21.57;;
19869;SDS011;10097;50.862;4.696;2023-01-24T04:39:24;39.57;;;21.60;;
19869;SDS011;10097;50.862;4.696;2023-01-24T04:41:50;40.90;;;21.80;;
19869;SDS011;10097;50.862;4.696;2023-01-24T04:44:15;35.73;;;20.03;;
19869;SDS011;10097;50.862;4.696;2023-01-24T04:46:41;37.33;;;20.83;;
19869;SDS011;10097;50.862;4.696;2023-01-24T04:49:06;38.07;;;20.03;;
19869;SDS011;10097;50.862;4.696;2023-01-24T04:51:32;41.77;;;21.40;;
19869;SDS011;10097;50.862;4.696;2023-01-24T04:53:58;40.70;;;22.27;;
19869;SDS011;10097;50.862;4.696;2023-01-24T04:56:24;41.23;;;22.97;;
19869;SDS011;10097;50.862;4.696;2023-01-24T04:58:49;39.80;;;21.57;;
19869;SDS011;10097;50.862;4.696;2023-01-24T05:01:15;39.73;;;21.83;;
19869;SDS011;10097;50.862;4.696;2023-01-24T05:03:41;39.83;;;21.80;;
19869;SDS011;10097;50.862;4.696;2023-01-24T05:06:06;45.30;;;23.03;;
19869;SDS011;10097;50.862;4.696;2023-01-24T05:08:32;40.50;;;21.80;;
19869;SDS011;10097;50.862;4.696;2023-01-24T05:11:01;45.00;;;22.13;;
19869;SDS011;10097;50.862;4.696;2023-01-24T05:13:27;41.80;;;23.03;;
19869;SDS011;10097;50.862;4.696;2023-01-24T05:15:53;44.93;;;24.27;;
19869;SDS011;10097;50.862;4.696;2023-01-24T05:18:19;43.17;;;22.70;;
19869;SDS011;10097;50.862;4.696;2023-01-24T05:20:45;43.63;;;23.77;;
19869;SDS011;10097;50.862;4.696;2023-01-24T05:23:10;45.03;;;23.70;;
19869;SDS011;10097;50.862;4.696;2023-01-24T05:25:36;48.13;;;24.83;;
19869;SDS011;10097;50.862;4.696;2023-01-24T05:28:02;44.90;;;24.37;;
19869;SDS011;10097;50.862;4.696;2023-01-24T05:30:27;42.43;;;23.93;;
19869;SDS011;10097;50.862;4.696;2023-01-24T05:32:56;43.10;;;24.27;;
19869;SDS011;10097;50.862;4.696;2023-01-24T05:35:23;38.93;;;22.13;;
19869;SDS011;10097;50.862;4.696;2023-01-24T05:37:49;41.53;;;22.90;;
19869;SDS011;10097;50.862;4.696;2023-01-24T05:40:15;43.80;;;24.10;;
19869;SDS011;10097;50.862;4.696;2023-01-24T05:42:41;43.20;;;23.27;;
19869;SDS011;10097;50.862;4.696;2023-01-24T05:45:07;43.63;;;24.13;;
19869;SDS011;10097;50.862;4.696;2023-01-24T05:47:34;43.70;;;23.40;;
19869;SDS011;10097;50.862;4.696;2023-01-24T05:50:00;44.37;;;23.50;;
19869;SDS011;10097;50.862;4.696;2023-01-24T05:52:25;47.87;;;25.40;;
19869;SDS011;10097;50.862;4.696;2023-01-24T05:54:51;45.43;;;23.80;;
19869;SDS011;10097;50.862;4.696;2023-01-24T05:57:17;44.13;;;24.67;;
19869;SDS011;10097;50.862;4.696;2023-01-24T05:59:43;42.93;;;24.33;;
19869;SDS011;10097;50.862;4.696;2023-01-24T06:02:08;43.50;;;23.90;;
19869;SDS011;10097;50.862;4.696;2023-01-24T06:04:34;46.17;;;25.23;;
19869;SDS011;10097;50.862;4.696;2023-01-24T06:07:00;42.10;;;24.70;;
19869;SDS011;10097;50.862;4.696;2023-01-24T06:09:26;42.03;;;23.20;;
19869;SDS011;10097;50.862;4.696;2023-01-24T06:11:51;41.63;;;23.57;;
19869;SDS011;10097;50.862;4.696;2023-01-24T06:14:17;44.50;;;23.27;;
19869;SDS011;10097;50.862;4.696;2023-01-24T06:16:43;42.93;;;23.47;;
19869;SDS011;10097;50.862;4.696;2023-01-24T06:19:10;39.77;;;21.93;;
19869;SDS011;10097;50.862;4.696;2023-01-24T06:24:13;37.73;;;22.00;;
19869;SDS011;10097;50.862;4.696;2023-01-24T06:26:44;35.97;;;21.10;;
19869;SDS011;10097;50.862;4.696;2023-01-24T06:29:11;37.43;;;20.90;;
19869;SDS011;10097;50.862;4.696;2023-01-24T06:31:42;40.33;;;22.03;;
19869;SDS011;10097;50.862;4.696;2023-01-24T06:39:22;41.90;;;23.07;;
19869;SDS011;10097;50.862;4.696;2023-01-24T06:41:48;47.70;;;23.47;;
19869;SDS011;10097;50.862;4.696;2023-01-24T06:44:14;46.07;;;24.90;;
19869;SDS011;10097;50.862;4.696;2023-01-24T06:46:40;43.80;;;24.80;;
19869;SDS011;10097;50.862;4.696;2023-01-24T06:49:06;47.97;;;25.30;;
19869;SDS011;10097;50.862;4.696;2023-01-24T06:51:32;42.30;;;23.60;;
19869;SDS011;10097;50.862;4.696;2023-01-24T06:53:58;46.43;;;24.03;;
19869;SDS011;10097;50.862;4.696;2023-01-24T06:56:24;44.23;;;23.80;;
19869;SDS011;10097;50.862;4.696;2023-01-24T06:58:49;47.80;;;26.07;;
19869;SDS011;10097;50.862;4.696;2023-01-24T07:01:15;48.03;;;25.93;;
19869;SDS011;10097;50.862;4.696;2023-01-24T07:03:41;45.70;;;25.27;;
19869;SDS011;10097;50.862;4.696;2023-01-24T07:06:06;46.27;;;24.60;;
19869;SDS011;10097;50.862;4.696;2023-01-24T07:08:32;45.03;;;24.30;;
19869;SDS011;10097;50.862;4.696;2023-01-24T07:10:58;44.37;;;24.43;;
19869;SDS011;10097;50.862;4.696;2023-01-24T07:13:24;43.10;;;22.67;;
19869;SDS011;10097;50.862;4.696;2023-01-24T07:15:50;42.40;;;22.33;;
19869;SDS011;10097;50.862;4.696;2023-01-24T07:18:16;40.17;;;21.03;;
19869;SDS011;10097;50.862;4.696;2023-01-24T07:20:43;37.57;;;19.63;;
19869;SDS011;10097;50.862;4.696;2023-01-24T07:23:18;32.33;;;18.60;;
19869;SDS011;10097;50.862;4.696;2023-01-24T07:25:51;32.90;;;17.73;;
19869;SDS011;10097;50.862;4.696;2023-01-24T07:28:17;30.80;;;17.77;;
19869;SDS011;10097;50.862;4.696;2023-01-24T07:30:43;33.73;;;18.27;;
19869;SDS011;10097;50.862;4.696;2023-01-24T07:33:12;33.30;;;18.40;;
19869;SDS011;10097;50.862;4.696;2023-01-24T07:35:39;31.97;;;17.73;;
19869;SDS011;10097;50.862;4.696;2023-01-24T07:38:05;33.17;;;19.07;;
19869;SDS011;10097;50.862;4.696;2023-01-24T07:40:31;33.03;;;17.57;;
19869;SDS011;10097;50.862;4.696;2023-01-24T07:43:00;31.53;;;16.83;;
19869;SDS011;10097;50.862;4.696;2023-01-24T07:45:27;37.23;;;18.93;;
19869;SDS011;10097;50.862;4.696;2023-01-24T07:47:56;33.00;;;18.27;;
19869;SDS011;10097;50.862;4.696;2023-01-24T07:50:23;31.83;;;17.93;;
19869;SDS011;10097;50.862;4.696;2023-01-24T07:52:50;34.80;;;18.50;;
19869;SDS011;10097;50.862;4.696;2023-01-24T07:55:17;36.47;;;19.03;;
19869;SDS011;10097;50.862;4.696;2023-01-24T07:57:42;33.50;;;18.17;;
19869;SDS011;10097;50.862;4.696;2023-01-24T08:00:08;31.03;;;18.03;;
19869;SDS011;10097;50.862;4.696;2023-01-24T08:02:34;30.90;;;18.00;;
19869;SDS011;10097;50.862;4.696;2023-01-24T08:05:00;32.03;;;18.00;;
19869;SDS011;10097;50.862;4.696;2023-01-24T08:07:25;32.00;;;18.53;;
19869;SDS011;10097;50.862;4.696;2023-01-24T08:09:51;30.90;;;17.33;;
19869;SDS011;10097;50.862;4.696;2023-01-24T08:12:17;33.57;;;18.20;;
19869;SDS011;10097;50.862;4.696;2023-01-24T08:14:43;33.90;;;19.17;;
19869;SDS011;10097;50.862;4.696;2023-01-24T08:17:11;33.67;;;18.90;;
19869;SDS011;10097;50.862;4.696;2023-01-24T08:19:37;31.13;;;18.20;;
19869;SDS011;10097;50.862;4.696;2023-01-24T08:22:05;30.93;;;16.97;;
19869;SDS011;10097;50.862;4.696;2023-01-24T08:24:31;30.87;;;18.60;;
19869;SDS011;10097;50.862;4.696;2023-01-24T08:26:58;34.20;;;17.80;;
19869;SDS011;10097;50.862;4.696;2023-01-24T08:29:24;29.30;;;17.63;;
19869;SDS011;10097;50.862;4.696;2023-01-24T08:31:50;31.83;;;18.63;;
19869;SDS011;10097;50.862;4.696;2023-01-24T08:34:15;30.20;;;18.33;;
19869;SDS011;10097;50.862;4.696;2023-01-24T08:36:41;30.63;;;18.20;;
19869;SDS011;10097;50.862;4.696;2023-01-24T08:39:06;30.43;;;17.40;;
19869;SDS011;10097;50.862;4.696;2023-01-24T08:41:32;32.77;;;18.77;;
19869;SDS011;10097;50.862;4.696;2023-01-24T08:43:58;30.27;;;17.43;;
19869;SDS011;10097;50.862;4.696;2023-01-24T08:46:23;29.67;;;17.33;;
19869;SDS011;10097;50.862;4.696;2023-01-24T08:48:50;34.43;;;19.03;;
19869;SDS011;10097;50.862;4.696;2023-01-24T08:51:16;33.33;;;17.93;;
19869;SDS011;10097;50.862;4.696;2023-01-24T08:53:41;31.37;;;17.83;;
19869;SDS011;10097;50.862;4.696;2023-01-24T08:56:07;30.40;;;18.10;;
19869;SDS011;10097;50.862;4.696;2023-01-24T08:58:33;33.33;;;17.90;;
19869;SDS011;10097;50.862;4.696;2023-01-24T09:00:59;28.13;;;16.47;;
19869;SDS011;10097;50.862;4.696;2023-01-24T09:03:29;31.17;;;17.23;;
19869;SDS011;10097;50.862;4.696;2023-01-24T09:05:58;28.07;;;15.70;;
19869;SDS011;10097;50.862;4.696;2023-01-24T09:08:24;30.40;;;16.43;;
19869;SDS011;10097;50.862;4.696;2023-01-24T09:10:50;28.07;;;15.73;;
19869;SDS011;10097;50.862;4.696;2023-01-24T09:13:16;24.77;;;14.83;;
19869;SDS011;10097;50.862;4.696;2023-01-24T09:15:41;26.93;;;14.97;;
19869;SDS011;10097;50.862;4.696;2023-01-24T09:18:07;26.47;;;13.90;;
19869;SDS011;10097;50.862;4.696;2023-01-24T09:20:33;26.60;;;15.23;;
19869;SDS011;10097;50.862;4.696;2023-01-24T09:22:59;27.87;;;15.00;;
19869;SDS011;10097;50.862;4.696;2023-01-24T09:25:25;26.30;;;14.97;;
19869;SDS011;10097;50.862;4.696;2023-01-24T09:27:54;25.23;;;14.57;;
19869;SDS011;10097;50.862;4.696;2023-01-24T09:30:20;25.33;;;15.03;;
19869;SDS011;10097;50.862;4.696;2023-01-24T09:32:48;28.30;;;14.83;;
19869;SDS011;10097;50.862;4.696;2023-01-24T09:35:14;25.67;;;14.67;;
19869;SDS011;10097;50.862;4.696;2023-01-24T09:37:40;25.67;;;15.00;;
19869;SDS011;10097;50.862;4.696;2023-01-24T09:40:28;30.27;;;14.77;;
19869;SDS011;10097;50.862;4.696;2023-01-24T09:43:06;28.37;;;14.80;;
19869;SDS011;10097;50.862;4.696;2023-01-24T09:46:11;28.30;;;15.67;;
19869;SDS011;10097;50.862;4.696;2023-01-24T09:48:46;28.53;;;16.33;;
19869;SDS011;10097;50.862;4.696;2023-01-24T09:51:19;27.47;;;15.70;;
19869;SDS011;10097;50.862;4.696;2023-01-24T09:53:50;28.80;;;15.13;;
19869;SDS011;10097;50.862;4.696;2023-01-24T09:56:26;26.43;;;15.70;;
19869;SDS011;10097;50.862;4.696;2023-01-24T09:59:06;24.80;;;14.40;;
19869;SDS011;10097;50.862;4.696;2023-01-24T10:01:38;25.97;;;14.93;;
19869;SDS011;10097;50.862;4.696;2023-01-24T10:04:10;29.53;;;16.03;;
19869;SDS011;10097;50.862;4.696;2023-01-24T10:06:39;33.90;;;16.63;;
19869;SDS011;10097;50.862;4.696;2023-01-24T10:09:21;26.63;;;15.40;;
19869;SDS011;10097;50.862;4.696;2023-01-24T10:25:40;26.63;;;15.13;;
19869;SDS011;10097;50.862;4.696;2023-01-24T10:31:00;27.13;;;14.63;;
19869;SDS011;10097;50.862;4.696;2023-01-24T10:33:35;27.33;;;15.47;;
19869;SDS011;10097;50.862;4.696;2023-01-24T10:36:19;26.10;;;14.90;;
19869;SDS011;10097;50.862;4.696;2023-01-24T10:39:08;29.37;;;14.67;;
19869;SDS011;10097;50.862;4.696;2023-01-24T10:41:38;26.93;;;15.43;;
19869;SDS011;10097;50.862;4.696;2023-01-24T10:46:44;27.97;;;15.20;;
19869;SDS011;10097;50.862;4.696;2023-01-24T10:49:31;24.73;;;14.37;;
19869;SDS011;10097;50.862;4.696;2023-01-24T10:52:07;26.70;;;14.03;;
19869;SDS011;10097;50.862;4.696;2023-01-24T10:54:45;27.13;;;14.57;;
19869;SDS011;10097;50.862;4.696;2023-01-24T10:57:30;26.10;;;14.87;;
19869;SDS011;10097;50.862;4.696;2023-01-24T11:02:57;25.97;;;14.73;;
19869;SDS011;10097;50.862;4.696;2023-01-24T11:05:46;26.60;;;14.97;;
19869;SDS011;10097;50.862;4.696;2023-01-24T11:08:21;26.07;;;14.73;;
19869;SDS011;10097;50.862;4.696;2023-01-24T11:10:52;23.70;;;13.73;;
19869;SDS011;10097;50.862;4.696;2023-01-24T11:16:02;23.13;;;14.17;;
19869;SDS011;10097;50.862;4.696;2023-01-24T11:18:55;24.57;;;13.83;;
19869;SDS011;10097;50.862;4.696;2023-01-24T11:21:24;25.67;;;13.60;;
19869;SDS011;10097;50.862;4.696;2023-01-24T11:26:26;24.27;;;13.40;;
19869;SDS011;10097;50.862;4.696;2023-01-24T11:29:01;24.47;;;13.27;;
19869;SDS011;10097;50.862;4.696;2023-01-24T11:31:38;24.40;;;13.77;;
19869;SDS011;10097;50.862;4.696;2023-01-24T11:34:22;26.20;;;14.53;;
19869;SDS011;10097;50.862;4.696;2023-01-24T11:39:41;23.47;;;14.17;;
19869;SDS011;10097;50.862;4.696;2023-01-24T11:42:54;23.13;;;13.70;;
19869;SDS011;10097;50.862;4.696;2023-01-24T11:48:36;23.00;;;13.17;;
19869;SDS011;10097;50.862;4.696;2023-01-24T11:56:11;28.53;;;14.10;;
19869;SDS011;10097;50.862;4.696;2023-01-24T12:01:34;25.70;;;13.93;;
19869;SDS011;10097;50.862;4.696;2023-01-24T12:13:51;26.37;;;14.67;;
19869;SDS011;10097;50.862;4.696;2023-01-24T12:15:59;23.30;;;13.37;;
19869;SDS011;10097;50.862;4.696;2023-01-24T12:18:49;24.47;;;14.73;;
19869;SDS011;10097;50.862;4.696;2023-01-24T12:21:16;27.53;;;14.00;;
19869;SDS011;10097;50.862;4.696;2023-01-24T12:23:51;27.17;;;14.93;;
19869;SDS011;10097;50.862;4.696;2023-01-24T12:26:28;23.43;;;13.60;;
19869;SDS011;10097;50.862;4.696;2023-01-24T12:31:48;25.33;;;14.50;;
19869;SDS011;10097;50.862;4.696;2023-01-24T12:37:05;26.20;;;15.57;;
19869;SDS011;10097;50.862;4.696;2023-01-24T12:40:09;25.23;;;15.27;;
19869;SDS011;10097;50.862;4.696;2023-01-24T12:42:40;31.30;;;15.20;;
19869;SDS011;10097;50.862;4.696;2023-01-24T12:45:38;27.50;;;14.67;;
19869;SDS011;10097;50.862;4.696;2023-01-24T12:48:26;26.60;;;14.73;;
19869;SDS011;10097;50.862;4.696;2023-01-24T12:56:55;27.23;;;15.07;;
19869;SDS011;10097;50.862;4.696;2023-01-24T12:59:29;27.60;;;15.80;;
19869;SDS011;10097;50.862;4.696;2023-01-24T13:04:57;26.17;;;15.63;;
19869;SDS011;10097;50.862;4.696;2023-01-24T13:12:35;31.67;;;15.90;;
19869;SDS011;10097;50.862;4.696;2023-01-24T13:15:04;29.37;;;16.03;;
19869;SDS011;10097;50.862;4.696;2023-01-24T13:17:47;28.87;;;16.50;;
19869;SDS011;10097;50.862;4.696;2023-01-24T13:23:16;30.13;;;15.17;;
19869;SDS011;10097;50.862;4.696;2023-01-24T13:31:43;27.87;;;16.10;;
19869;SDS011;10097;50.862;4.696;2023-01-24T13:34:13;29.37;;;16.00;;
19869;SDS011;10097;50.862;4.696;2023-01-24T13:36:41;22.90;;;14.10;;
19869;SDS011;10097;50.862;4.696;2023-01-24T13:39:26;26.77;;;15.83;;
19869;SDS011;10097;50.862;4.696;2023-01-24T13:42:22;29.37;;;15.57;;
19869;SDS011;10097;50.862;4.696;2023-01-24T13:44:56;26.33;;;15.03;;
19869;SDS011;10097;50.862;4.696;2023-01-24T13:47:22;25.43;;;14.17;;
19869;SDS011;10097;50.862;4.696;2023-01-24T13:54:59;26.07;;;14.57;;
19869;SDS011;10097;50.862;4.696;2023-01-24T13:57:29;28.33;;;15.50;;
19869;SDS011;10097;50.862;4.696;2023-01-24T13:59:57;25.23;;;15.03;;
19869;SDS011;10097;50.862;4.696;2023-01-24T14:02:39;27.13;;;14.70;;
19869;SDS011;10097;50.862;4.696;2023-01-24T14:10:32;27.57;;;15.47;;
19869;SDS011;10097;50.862;4.696;2023-01-24T14:12:58;27.37;;;15.43;;
19869;SDS011;10097;50.862;4.696;2023-01-24T14:15:25;25.87;;;14.47;;
19869;SDS011;10097;50.862;4.696;2023-01-24T14:17:54;26.67;;;14.83;;
19869;SDS011;10097;50.862;4.696;2023-01-24T14:22:50;24.50;;;14.23;;
19869;SDS011;10097;50.862;4.696;2023-01-24T14:25:32;28.90;;;15.03;;
19869;SDS011;10097;50.862;4.696;2023-01-24T14:30:42;25.70;;;15.33;;
19869;SDS011;10097;50.862;4.696;2023-01-24T14:33:29;26.47;;;14.57;;
19869;SDS011;10097;50.862;4.696;2023-01-24T14:38:37;24.40;;;14.30;;
19869;SDS011;10097;50.862;4.696;2023-01-24T14:41:02;24.70;;;13.80;;
19869;SDS011;10097;50.862;4.696;2023-01-24T14:43:32;23.57;;;14.20;;
19869;SDS011;10097;50.862;4.696;2023-01-24T14:46:08;25.17;;;14.10;;
19869;SDS011;10097;50.862;4.696;2023-01-24T14:48:35;24.10;;;13.60;;
19869;SDS011;10097;50.862;4.696;2023-01-24T14:51:04;25.37;;;13.40;;
19869;SDS011;10097;50.862;4.696;2023-01-24T14:53:32;24.33;;;13.23;;
19869;SDS011;10097;50.862;4.696;2023-01-24T14:56:00;23.57;;;13.10;;
19869;SDS011;10097;50.862;4.696;2023-01-24T14:58:32;27.30;;;15.20;;
19869;SDS011;10097;50.862;4.696;2023-01-24T15:00:59;23.77;;;12.80;;
19869;SDS011;10097;50.862;4.696;2023-01-24T15:03:28;23.60;;;12.10;;
19869;SDS011;10097;50.862;4.696;2023-01-24T15:05:57;24.60;;;12.80;;
19869;SDS011;10097;50.862;4.696;2023-01-24T15:08:27;23.30;;;13.03;;
19869;SDS011;10097;50.862;4.696;2023-01-24T15:10:56;24.47;;;13.67;;
19869;SDS011;10097;50.862;4.696;2023-01-24T15:13:34;25.13;;;13.00;;
19869;SDS011;10097;50.862;4.696;2023-01-24T15:16:07;23.20;;;12.87;;
19869;SDS011;10097;50.862;4.696;2023-01-24T15:18:41;23.10;;;12.30;;
19869;SDS011;10097;50.862;4.696;2023-01-24T15:23:50;23.00;;;12.80;;
19869;SDS011;10097;50.862;4.696;2023-01-24T15:26:22;23.57;;;13.33;;
19869;SDS011;10097;50.862;4.696;2023-01-24T15:28:49;25.57;;;12.63;;
19869;SDS011;10097;50.862;4.696;2023-01-24T15:31:19;25.90;;;12.93;;
19869;SDS011;10097;50.862;4.696;2023-01-24T15:33:52;20.87;;;11.27;;
19869;SDS011;10097;50.862;4.696;2023-01-24T15:36:27;21.83;;;11.63;;
19869;SDS011;10097;50.862;4.696;2023-01-24T15:38:56;22.50;;;12.23;;
19869;SDS011;10097;50.862;4.696;2023-01-24T15:41:24;21.67;;;11.67;;
19869;SDS011;10097;50.862;4.696;2023-01-24T15:44:14;21.07;;;11.33;;
19869;SDS011;10097;50.862;4.696;2023-01-24T15:46:44;21.30;;;11.33;;
19869;SDS011;10097;50.862;4.696;2023-01-24T15:49:37;22.03;;;11.33;;
19869;SDS011;10097;50.862;4.696;2023-01-24T15:54:32;24.93;;;13.03;;
19869;SDS011;10097;50.862;4.696;2023-01-24T15:57:04;28.40;;;13.17;;
19869;SDS011;10097;50.862;4.696;2023-01-24T15:59:34;22.47;;;11.73;;
19869;SDS011;10097;50.862;4.696;2023-01-24T16:02:07;24.17;;;11.93;;
19869;SDS011;10097;50.862;4.696;2023-01-24T16:04:37;22.97;;;12.10;;
19869;SDS011;10097;50.862;4.696;2023-01-24T16:07:03;22.30;;;11.60;;
19869;SDS011;10097;50.862;4.696;2023-01-24T16:09:28;24.43;;;12.77;;
19869;SDS011;10097;50.862;4.696;2023-01-24T16:11:54;25.37;;;12.40;;
19869;SDS011;10097;50.862;4.696;2023-01-24T16:14:21;24.20;;;13.27;;
19869;SDS011;10097;50.862;4.696;2023-01-24T16:16:48;22.87;;;12.07;;
19869;SDS011;10097;50.862;4.696;2023-01-24T16:19:19;25.47;;;12.80;;
19869;SDS011;10097;50.862;4.696;2023-01-24T16:21:46;29.03;;;14.47;;
19869;SDS011;10097;50.862;4.696;2023-01-24T16:24:13;25.37;;;12.97;;
19869;SDS011;10097;50.862;4.696;2023-01-24T16:26:39;24.67;;;12.43;;
19869;SDS011;10097;50.862;4.696;2023-01-24T16:29:28;21.77;;;10.60;;
19869;SDS011;10097;50.862;4.696;2023-01-24T16:31:55;22.57;;;11.87;;
19869;SDS011;10097;50.862;4.696;2023-01-24T16:34:21;26.80;;;12.50;;
19869;SDS011;10097;50.862;4.696;2023-01-24T16:36:47;22.03;;;11.27;;
19869;SDS011;10097;50.862;4.696;2023-01-24T16:39:18;22.30;;;12.17;;
19869;SDS011;10097;50.862;4.696;2023-01-24T16:41:47;28.60;;;13.90;;